createdAt,value
2019-03-17T00:00:47.357Z,9.13
2019-03-17T00:05:53.130Z,9.15
2019-03-17T00:10:59.111Z,9.28
2019-03-17T00:16:05.454Z,9.32
2019-03-17T00:21:11.362Z,9.42
2019-03-17T00:26:17.186Z,9.41
2019-03-17T00:31:24.310Z,9.41
2019-03-17T00:36:30.308Z,9.44
2019-03-17T00:41:36.214Z,9.41
2019-03-17T00:46:42.067Z,9.51
2019-03-17T00:51:47.959Z,9.57
2019-03-17T00:56:53.722Z,9.62
2019-03-17T01:01:59.654Z,9.63
2019-03-17T01:07:05.603Z,9.71
2019-03-17T01:12:11.615Z,9.63
2019-03-17T01:17:17.430Z,9.58
2019-03-17T01:22:24.409Z,9.59
2019-03-17T01:27:30.237Z,9.60
2019-03-17T01:32:36.214Z,9.59
2019-03-17T01:37:42.805Z,9.61
2019-03-17T01:42:48.469Z,9.51
2019-03-17T01:47:54.343Z,9.53
2019-03-17T01:53:00.112Z,9.53
2019-03-17T01:58:06.087Z,9.58
2019-03-17T02:03:12.002Z,9.55
2019-03-17T02:08:17.826Z,9.53
2019-03-17T02:13:23.610Z,9.48
2019-03-17T02:18:29.574Z,9.45
2019-03-17T02:23:35.456Z,9.55
2019-03-17T02:28:42.287Z,9.48
2019-03-17T02:33:48.530Z,9.53
2019-03-17T02:38:55.040Z,9.45
2019-03-17T02:44:03.330Z,9.44
2019-03-17T02:49:09.916Z,9.36
2019-03-17T02:54:15.708Z,9.46
2019-03-17T02:59:21.378Z,9.41
2019-03-17T03:04:27.336Z,9.44
2019-03-17T03:09:33.145Z,9.45
2019-03-17T03:14:39.084Z,9.35
2019-03-17T03:19:44.954Z,9.41
2019-03-17T03:24:50.725Z,9.38
2019-03-17T03:29:57.617Z,9.33
2019-03-17T03:35:08.088Z,9.28
2019-03-17T03:40:14.163Z,9.23
2019-03-17T03:45:20.033Z,9.14
2019-03-17T03:50:25.918Z,9.26
2019-03-17T03:55:31.682Z,9.23
2019-03-17T04:00:37.546Z,9.30
2019-03-17T04:05:43.341Z,9.26
2019-03-17T04:10:49.386Z,9.26
2019-03-17T04:15:55.756Z,9.05
2019-03-17T04:21:01.754Z,9.19
2019-03-17T04:26:07.529Z,9.20
2019-03-17T04:31:14.633Z,9.24
2019-03-17T04:36:20.789Z,9.24
2019-03-17T04:41:27.506Z,9.25
2019-03-17T04:46:33.241Z,9.15
2019-03-17T04:51:39.335Z,9.16
2019-03-17T04:56:45.687Z,9.20
2019-03-17T05:01:51.653Z,9.21
2019-03-17T05:06:57.425Z,9.20
2019-03-17T05:12:03.254Z,9.20
2019-03-17T05:17:09.229Z,9.26
2019-03-17T05:22:14.956Z,9.24
2019-03-17T05:27:21.750Z,9.31
2019-03-17T05:32:28.102Z,9.16
2019-03-17T05:37:34.825Z,9.29
2019-03-17T05:42:41.201Z,9.16
2019-03-17T05:47:47.201Z,9.25
2019-03-17T05:52:53.020Z,9.24
2019-03-17T05:57:58.932Z,9.41
2019-03-17T06:03:04.701Z,9.32
2019-03-17T06:08:10.638Z,9.55
2019-03-17T06:13:16.448Z,9.46
2019-03-17T06:18:22.264Z,9.44
2019-03-17T06:23:28.038Z,9.56
2019-03-17T06:28:33.850Z,9.54
2019-03-17T06:33:39.722Z,9.62
2019-03-17T06:38:46.625Z,9.55
2019-03-17T06:43:52.485Z,9.71
2019-03-17T06:48:58.513Z,9.70
2019-03-17T06:54:04.373Z,9.69
2019-03-17T06:59:10.304Z,9.67
2019-03-17T07:04:16.183Z,9.92
2019-03-17T07:09:22.052Z,9.75
2019-03-17T07:14:28.912Z,9.99
2019-03-17T07:19:34.710Z,9.99
2019-03-17T07:24:40.589Z,10.01
2019-03-17T07:29:49.421Z,10.28
2019-03-17T07:34:54.210Z,9.99
2019-03-17T07:40:00.461Z,10.17
2019-03-17T07:45:08.813Z,10.28
2019-03-17T07:50:14.929Z,10.21
2019-03-17T07:55:20.847Z,10.37
2019-03-17T08:00:31.879Z,10.55
2019-03-17T08:05:34.951Z,10.64
2019-03-17T08:10:42.837Z,10.62
2019-03-17T08:15:48.682Z,10.59
2019-03-17T08:20:54.637Z,10.55
2019-03-17T08:26:00.568Z,10.78
2019-03-17T08:31:06.737Z,10.82
2019-03-17T08:36:12.619Z,10.85
2019-03-17T08:41:18.527Z,11.19
2019-03-17T08:46:24.362Z,11.16
2019-03-17T08:51:30.277Z,11.14
2019-03-17T08:56:36.503Z,11.15
2019-03-17T09:01:42.290Z,11.56
2019-03-17T09:06:49.084Z,11.81
2019-03-17T09:11:55.454Z,11.83
2019-03-17T09:17:13.689Z,11.79
2019-03-17T09:22:09.849Z,11.96
2019-03-17T09:27:15.742Z,12.14
2019-03-17T09:32:21.706Z,12.01
2019-03-17T09:37:27.571Z,12.25
2019-03-17T09:42:33.439Z,12.12
2019-03-17T09:47:41.103Z,12.83
2019-03-17T09:52:46.846Z,12.65
2019-03-17T09:57:52.893Z,12.58
2019-03-17T10:02:59.790Z,12.80
2019-03-17T10:08:05.663Z,13.23
2019-03-17T10:13:11.545Z,13.27
2019-03-17T10:18:17.537Z,12.88
2019-03-17T10:23:23.276Z,13.27
2019-03-17T10:28:29.159Z,13.19
2019-03-17T10:33:35.140Z,13.14
2019-03-17T10:38:40.995Z,13.03
2019-03-17T10:43:46.879Z,13.05
2019-03-17T10:48:52.848Z,12.94
2019-03-17T10:54:00.561Z,12.74
2019-03-17T10:59:07.656Z,12.65
2019-03-17T11:04:13.932Z,12.64
2019-03-17T11:09:25.287Z,12.73
2019-03-17T11:14:28.053Z,12.79
2019-03-17T11:19:34.223Z,12.70
2019-03-17T11:24:40.077Z,12.70
2019-03-17T11:29:45.960Z,12.57
2019-03-17T11:34:51.855Z,12.66
2019-03-17T11:39:58.926Z,12.61
2019-03-17T11:45:06.298Z,12.51
2019-03-17T11:50:21.996Z,12.49
2019-03-17T11:55:27.934Z,12.39
2019-03-17T12:00:33.936Z,12.34
2019-03-17T12:05:39.952Z,12.27
2019-03-17T12:10:46.153Z,12.21
2019-03-17T12:15:52.106Z,12.21
2019-03-17T12:20:58.091Z,12.30
2019-03-17T12:26:04.177Z,12.32
2019-03-17T12:31:10.278Z,12.44
2019-03-17T12:36:18.869Z,12.22
2019-03-17T12:41:24.908Z,12.06
2019-03-17T12:46:30.730Z,12.12
2019-03-17T12:51:36.798Z,12.18
2019-03-17T12:56:42.671Z,11.74
2019-03-17T13:01:48.623Z,11.00
2019-03-17T13:06:54.673Z,10.89
2019-03-17T13:12:00.667Z,10.75
2019-03-17T13:17:06.790Z,10.70
2019-03-17T13:22:12.852Z,10.61
2019-03-17T13:27:18.775Z,9.78
2019-03-17T13:32:24.709Z,9.15
2019-03-17T13:37:30.649Z,8.74
2019-03-17T13:42:38.018Z,8.58
2019-03-17T13:47:44.150Z,8.82
2019-03-17T13:52:50.255Z,8.53
2019-03-17T13:57:59.084Z,8.36
2019-03-17T14:03:05.045Z,8.16
2019-03-17T14:08:10.905Z,8.07
2019-03-17T14:13:17.791Z,8.19
2019-03-17T14:18:23.632Z,8.34
2019-03-17T14:23:29.961Z,8.41
2019-03-17T14:28:37.236Z,8.44
2019-03-17T14:33:43.231Z,8.16
2019-03-17T14:38:49.196Z,8.25
2019-03-17T14:43:56.710Z,8.11
2019-03-17T14:49:02.718Z,8.09
2019-03-17T14:54:08.692Z,7.93
2019-03-17T14:59:15.583Z,8.04
2019-03-17T15:04:21.451Z,8.09
2019-03-17T15:09:27.380Z,8.02
2019-03-17T15:14:33.390Z,8.07
2019-03-17T15:19:39.860Z,8.21
2019-03-17T15:24:45.834Z,8.09
2019-03-17T15:29:51.898Z,8.14
2019-03-17T15:34:57.978Z,8.14
2019-03-17T15:40:04.769Z,7.97
2019-03-17T15:45:15.387Z,8.16
2019-03-17T15:50:26.185Z,8.20
2019-03-17T15:55:32.033Z,8.38
2019-03-17T16:00:38.074Z,8.49
2019-03-17T16:05:44.068Z,8.56
2019-03-17T16:10:49.929Z,8.28
2019-03-17T16:15:55.914Z,8.39
2019-03-17T16:21:01.821Z,8.26
2019-03-17T16:26:07.906Z,8.19
2019-03-17T16:31:13.856Z,8.13
2019-03-17T16:36:19.742Z,8.16
2019-03-17T16:41:25.705Z,8.10
2019-03-17T16:46:31.692Z,8.33
2019-03-17T16:51:37.665Z,8.05
2019-03-17T16:56:43.920Z,8.18
2019-03-17T17:01:50.113Z,8.15
2019-03-17T17:06:56.672Z,8.14
2019-03-17T17:12:02.653Z,7.98
2019-03-17T17:17:08.676Z,8.18
2019-03-17T17:22:14.813Z,7.84
2019-03-17T17:27:20.865Z,7.89
2019-03-17T17:32:26.902Z,7.92
2019-03-17T17:37:32.952Z,7.87
2019-03-17T17:42:39.790Z,7.78
2019-03-17T17:47:45.809Z,7.77
2019-03-17T17:52:51.590Z,7.82
2019-03-17T17:57:57.567Z,7.97
2019-03-17T18:03:03.706Z,7.81
2019-03-17T18:08:09.658Z,7.80
2019-03-17T18:13:15.557Z,7.85
2019-03-17T18:18:21.415Z,7.81
2019-03-17T18:23:27.378Z,8.10
2019-03-17T18:28:33.467Z,7.98
2019-03-17T18:33:39.397Z,7.84
2019-03-17T18:38:45.441Z,8.48
2019-03-17T18:43:51.910Z,7.60
2019-03-17T18:48:58.662Z,7.53
2019-03-17T18:54:05.606Z,7.49
2019-03-17T18:59:11.839Z,7.49
2019-03-17T19:04:17.918Z,7.30
2019-03-17T19:09:24.454Z,7.20
2019-03-17T19:14:30.362Z,7.03
2019-03-17T19:19:36.190Z,6.86
2019-03-17T19:24:42.044Z,6.63
2019-03-17T19:29:48.148Z,6.63
2019-03-17T19:34:54.398Z,6.45
2019-03-17T19:40:01.427Z,6.46
2019-03-17T19:45:08.527Z,6.32
2019-03-17T19:50:19.001Z,6.18
2019-03-17T19:55:24.860Z,6.24
2019-03-17T20:00:30.732Z,6.17
2019-03-17T20:05:36.696Z,6.17
2019-03-17T20:10:42.619Z,6.02
2019-03-17T20:15:48.672Z,5.99
2019-03-17T20:20:54.645Z,5.91
2019-03-17T20:26:00.652Z,5.78
2019-03-17T20:31:06.767Z,5.76
2019-03-17T20:36:12.665Z,5.84
2019-03-17T20:41:18.649Z,5.69
2019-03-17T20:46:24.649Z,5.77
2019-03-17T20:51:30.692Z,5.57
2019-03-17T20:56:37.425Z,5.50
2019-03-17T21:01:43.691Z,5.50
2019-03-17T21:06:49.586Z,5.56
2019-03-17T21:11:55.794Z,5.47
2019-03-17T21:17:01.855Z,5.49
2019-03-17T21:22:08.011Z,5.50
2019-03-17T21:27:14.029Z,5.40
2019-03-17T21:32:19.878Z,5.36
2019-03-17T21:37:25.793Z,5.44
2019-03-17T21:42:31.735Z,5.39
2019-03-17T21:47:37.648Z,5.35
2019-03-17T21:52:43.396Z,5.39
2019-03-17T21:57:49.440Z,5.22
2019-03-17T22:02:56.542Z,5.15
2019-03-17T22:08:02.622Z,5.18
2019-03-17T22:13:09.511Z,5.18
2019-03-17T22:18:15.611Z,5.12
2019-03-17T22:23:23.232Z,5.14
2019-03-17T22:28:29.181Z,5.04
2019-03-17T22:33:35.062Z,5.14
2019-03-17T22:38:41.042Z,5.05
2019-03-17T22:43:46.925Z,5.12
2019-03-17T22:48:52.697Z,5.11
2019-03-17T22:53:58.482Z,4.98
2019-03-17T22:59:04.463Z,5.14
2019-03-17T23:04:10.374Z,5.11
2019-03-17T23:09:16.327Z,5.07
2019-03-17T23:14:22.324Z,5.07
2019-03-17T23:19:28.295Z,5.11
2019-03-17T23:24:34.263Z,5.05
2019-03-17T23:29:41.028Z,4.99
2019-03-17T23:34:47.286Z,4.99
2019-03-17T23:39:53.145Z,4.98
2019-03-17T23:44:59.103Z,4.89
2019-03-17T23:50:09.425Z,4.94
2019-03-17T23:55:15.753Z,4.81
